South Plains, Texas
Current Conditions -  °F | °C
As of 1:55 AM on Thursday 23 Oct 2014 (Local Time) from KPVW Reporting Station
Haze Haze  
Wind Chill: 57°   Ceiling: 200
Heat Index: 57°   Visibility: 4mi
Dew Point: 56°   Wind: 9mph
Humidity: 97%   Direction: 210°SSW
Pressure: 30.13"   Gusts: NA
Location:  34.22°N, 101.31°W
Report Text: KPVW 230655Z AUTO 21008KT 4SM BR OVC002 14/14 A3013 RMK AO2 T01410136
Loading
Personal Weather Stations






























Interactive Weather Map
Tropical Storm Tracking
New forecast layout! Learn more

10-Day Weather Forecast

Advertisements
Track Severe Weather on mobile